createdAt,value
2018-11-03T00:01:17.710Z,8.40
2018-11-03T00:03:46.888Z,8.20
2018-11-03T00:06:17.250Z,12.50
2018-11-03T00:08:46.368Z,7.93
2018-11-03T00:11:15.503Z,8.20
2018-11-03T00:13:45.232Z,8.00
2018-11-03T00:16:14.486Z,9.37
2018-11-03T00:18:43.664Z,8.30
2018-11-03T00:21:12.817Z,8.17
2018-11-03T00:23:42.033Z,7.67
2018-11-03T00:26:11.244Z,7.57
2018-11-03T00:28:40.463Z,7.00
2018-11-03T00:31:10.250Z,10.10
2018-11-03T00:33:39.394Z,6.93
2018-11-03T00:36:08.718Z,8.20
2018-11-03T00:38:37.864Z,7.53
2018-11-03T00:41:07.735Z,8.70
2018-11-03T00:43:36.938Z,7.97
2018-11-03T00:46:06.029Z,7.10
2018-11-03T00:48:35.211Z,8.00
2018-11-03T00:51:03.994Z,7.30
2018-11-03T00:53:33.862Z,6.87
2018-11-03T00:56:03.170Z,7.70
2018-11-03T00:58:32.454Z,10.40
2018-11-03T01:01:01.649Z,8.57
2018-11-03T01:03:30.905Z,9.33
2018-11-03T01:06:00.086Z,9.97
2018-11-03T01:08:29.236Z,12.17
2018-11-03T01:10:58.651Z,10.77
2018-11-03T01:13:27.777Z,12.10
2018-11-03T01:15:57.026Z,11.90
2018-11-03T01:18:26.203Z,12.60
2018-11-03T01:20:56.728Z,10.73
2018-11-03T01:23:25.912Z,11.07
2018-11-03T01:25:55.112Z,11.00
2018-11-03T01:28:24.329Z,10.63
2018-11-03T01:30:53.553Z,9.87
2018-11-03T01:33:22.811Z,8.80
2018-11-03T01:35:52.021Z,8.63
2018-11-03T01:38:21.328Z,9.43
2018-11-03T01:40:50.440Z,9.70
2018-11-03T01:43:19.597Z,11.53
2018-11-03T01:45:48.802Z,10.43
2018-11-03T01:48:18.821Z,10.43
2018-11-03T01:50:47.981Z,12.63
2018-11-03T01:53:17.105Z,10.17
2018-11-03T01:55:46.401Z,11.30
2018-11-03T01:58:15.609Z,12.20
2018-11-03T02:00:44.752Z,13.53
2018-11-03T02:03:14.351Z,10.00
2018-11-03T02:05:44.000Z,11.30
2018-11-03T02:08:13.153Z,10.83
2018-11-03T02:10:42.359Z,11.70
2018-11-03T02:13:12.256Z,9.90
2018-11-03T02:15:41.377Z,11.23
2018-11-03T02:18:10.594Z,12.97
2018-11-03T02:20:39.886Z,10.93
2018-11-03T02:23:09.078Z,10.90
2018-11-03T02:25:39.064Z,10.67
2018-11-03T02:28:08.242Z,9.50
2018-11-03T02:30:37.342Z,9.33
2018-11-03T02:33:06.593Z,9.67
2018-11-03T02:35:35.740Z,11.00
2018-11-03T02:38:04.868Z,10.23
2018-11-03T02:40:34.617Z,10.67
2018-11-03T02:43:04.779Z,10.50
2018-11-03T02:45:34.050Z,9.73
2018-11-03T02:48:04.254Z,9.40
2018-11-03T02:50:33.477Z,11.53
2018-11-03T02:53:02.819Z,11.80
2018-11-03T02:55:31.920Z,10.17
2018-11-03T02:58:01.066Z,10.33
2018-11-03T03:00:30.737Z,10.60
2018-11-03T03:03:00.018Z,12.10
2018-11-03T03:05:29.540Z,13.40
2018-11-03T03:07:59.394Z,11.77
2018-11-03T03:10:28.575Z,11.40
2018-11-03T03:12:57.677Z,10.70
2018-11-03T03:15:27.513Z,11.83
2018-11-03T03:17:56.762Z,11.47
2018-11-03T03:20:26.065Z,11.80
2018-11-03T03:22:55.177Z,11.20
2018-11-03T03:25:24.329Z,10.83
2018-11-03T03:27:53.556Z,11.80
2018-11-03T03:30:22.702Z,11.00
2018-11-03T03:32:51.819Z,11.83
2018-11-03T03:35:21.070Z,10.27
2018-11-03T03:37:51.150Z,9.80
2018-11-03T03:40:20.309Z,9.90
2018-11-03T03:42:49.496Z,10.80
2018-11-03T03:45:18.707Z,10.63
2018-11-03T03:47:48.549Z,11.03
2018-11-03T03:50:17.806Z,11.40
2018-11-03T03:52:48.204Z,11.80
2018-11-03T03:55:17.298Z,10.37
2018-11-03T03:57:46.421Z,11.40
2018-11-03T04:00:15.697Z,12.63
2018-11-03T04:02:45.475Z,10.10
2018-11-03T04:05:15.457Z,9.53
2018-11-03T04:07:44.645Z,10.57
2018-11-03T04:10:13.801Z,11.40
2018-11-03T04:12:42.972Z,11.70
2018-11-03T04:15:12.135Z,10.70
2018-11-03T04:17:41.221Z,11.57
2018-11-03T04:20:10.479Z,11.90
2018-11-03T04:22:39.723Z,13.30
2018-11-03T04:25:08.842Z,13.20
2018-11-03T04:27:37.958Z,11.40
2018-11-03T04:30:10.080Z,12.13
2018-11-03T04:32:39.273Z,13.80
2018-11-03T04:35:09.179Z,15.80
2018-11-03T04:37:38.504Z,12.63
2018-11-03T04:40:09.318Z,11.10
2018-11-03T04:42:38.591Z,17.03
2018-11-03T04:45:08.345Z,11.60
2018-11-03T04:47:37.918Z,12.40
2018-11-03T04:50:07.877Z,11.30
2018-11-03T04:52:37.094Z,11.50
2018-11-03T04:55:06.795Z,11.97
2018-11-03T04:57:36.047Z,11.93
2018-11-03T05:00:05.772Z,11.87
2018-11-03T05:02:34.998Z,11.53
2018-11-03T05:05:04.277Z,12.20
2018-11-03T05:07:33.526Z,11.13
2018-11-03T05:10:02.820Z,11.83
2018-11-03T05:12:31.878Z,12.40
2018-11-03T05:15:01.597Z,10.97
2018-11-03T05:17:30.718Z,17.60
2018-11-03T05:20:00.888Z,13.07
2018-11-03T05:22:30.121Z,33.80
2018-11-03T05:24:59.998Z,11.53
2018-11-03T05:27:29.370Z,11.10
2018-11-03T05:29:58.513Z,10.17
2018-11-03T05:32:27.662Z,12.03
2018-11-03T05:34:56.934Z,12.20
2018-11-03T05:37:26.031Z,10.17
2018-11-03T05:39:55.171Z,10.67
2018-11-03T05:42:24.318Z,11.67
2018-11-03T05:44:53.628Z,16.10
2018-11-03T05:47:22.685Z,13.27
2018-11-03T05:49:52.675Z,13.57
2018-11-03T05:52:21.980Z,13.10
2018-11-03T05:54:52.068Z,12.20
2018-11-03T05:57:21.213Z,12.30
2018-11-03T05:59:50.337Z,16.27
2018-11-03T06:02:19.452Z,13.50
2018-11-03T06:04:48.849Z,13.43
2018-11-03T06:07:18.045Z,15.33
2018-11-03T06:09:47.199Z,14.53
2018-11-03T06:12:16.453Z,12.73
2018-11-03T06:14:45.621Z,14.30
2018-11-03T06:17:14.858Z,14.50
2018-11-03T06:19:44.051Z,13.30
2018-11-03T06:22:13.976Z,14.50
2018-11-03T06:24:43.217Z,14.67
2018-11-03T06:27:13.209Z,13.13
2018-11-03T06:29:42.343Z,12.70
2018-11-03T06:32:11.570Z,13.83
2018-11-03T06:34:41.444Z,13.30
2018-11-03T06:37:10.661Z,14.90
2018-11-03T06:39:39.846Z,14.10
2018-11-03T06:42:09.039Z,18.33
2018-11-03T06:44:38.455Z,18.40
2018-11-03T06:47:07.932Z,14.87
2018-11-03T06:49:37.053Z,15.80
2018-11-03T06:52:06.405Z,14.70
2018-11-03T06:54:35.490Z,16.27
2018-11-03T06:57:04.835Z,16.20
2018-11-03T06:59:34.037Z,15.80
2018-11-03T07:02:03.397Z,15.80
2018-11-03T07:04:32.545Z,16.63
2018-11-03T07:07:01.704Z,13.90
2018-11-03T07:09:31.017Z,13.70
2018-11-03T07:12:00.333Z,15.30
2018-11-03T07:14:29.393Z,14.30
2018-11-03T07:16:59.173Z,13.57
2018-11-03T07:19:28.414Z,15.13
2018-11-03T07:21:58.007Z,14.90
2018-11-03T07:24:27.197Z,19.67
2018-11-03T07:26:56.033Z,14.53
2018-11-03T07:29:25.063Z,13.17
2018-11-03T07:31:54.270Z,13.27
2018-11-03T07:34:23.453Z,13.43
2018-11-03T07:36:52.953Z,14.50
2018-11-03T07:39:22.063Z,19.80
2018-11-03T07:41:51.224Z,13.77
2018-11-03T07:44:20.446Z,14.33
2018-11-03T07:46:49.594Z,14.30
2018-11-03T07:49:19.569Z,14.70
2018-11-03T07:51:49.190Z,16.20
2018-11-03T07:54:18.497Z,16.13
2018-11-03T07:56:48.110Z,15.60
2018-11-03T07:59:17.316Z,14.97
2018-11-03T08:01:47.090Z,14.93
2018-11-03T08:04:16.293Z,14.33
2018-11-03T08:06:46.017Z,15.60
2018-11-03T08:09:15.484Z,13.13
2018-11-03T08:11:44.634Z,14.27
2018-11-03T08:14:14.522Z,13.10
2018-11-03T08:16:44.333Z,15.20
2018-11-03T08:19:14.604Z,14.40
2018-11-03T08:21:43.844Z,14.37
2018-11-03T08:24:13.000Z,15.60
2018-11-03T08:26:42.178Z,12.73
2018-11-03T08:29:11.401Z,15.87
2018-11-03T08:31:40.587Z,13.83
2018-11-03T08:34:09.781Z,16.20
2018-11-03T08:36:38.981Z,16.60
2018-11-03T08:39:09.621Z,15.00
2018-11-03T08:41:38.890Z,15.57
2018-11-03T08:44:08.298Z,14.53
2018-11-03T08:46:37.565Z,14.43
2018-11-03T08:49:07.058Z,15.07
2018-11-03T08:51:36.534Z,14.17
2018-11-03T08:54:05.769Z,16.77
2018-11-03T08:56:36.450Z,14.57
2018-11-03T08:59:06.684Z,15.27
2018-11-03T09:01:35.775Z,14.00
2018-11-03T09:04:06.046Z,14.37
2018-11-03T09:06:35.240Z,13.90
2018-11-03T09:09:06.191Z,12.07
2018-11-03T09:11:35.312Z,18.70
2018-11-03T09:14:04.533Z,12.83
2018-11-03T09:16:33.803Z,12.80
2018-11-03T09:19:03.002Z,12.17
2018-11-03T09:21:32.221Z,13.60
2018-11-03T09:24:02.332Z,18.20
2018-11-03T09:26:31.565Z,12.87
2018-11-03T09:29:00.649Z,13.63
2018-11-03T09:31:30.108Z,12.40
2018-11-03T09:33:59.216Z,12.10
2018-11-03T09:36:29.156Z,14.43
2018-11-03T09:38:58.418Z,14.67
2018-11-03T09:41:28.201Z,12.73
2018-11-03T09:43:57.434Z,11.77
2018-11-03T09:46:27.693Z,13.93
2018-11-03T09:48:56.919Z,13.03
2018-11-03T09:51:26.086Z,13.07
2018-11-03T09:53:56.058Z,12.73
2018-11-03T09:56:25.238Z,13.17
2018-11-03T09:58:55.533Z,13.40
2018-11-03T10:01:25.489Z,13.73
2018-11-03T10:03:54.584Z,15.57
2018-11-03T10:06:23.859Z,14.13
2018-11-03T10:08:53.143Z,12.47
2018-11-03T10:11:22.323Z,12.80
2018-11-03T10:13:51.635Z,11.30
2018-11-03T10:16:21.345Z,12.73
2018-11-03T10:18:51.133Z,12.33
2018-11-03T10:21:20.263Z,12.20
2018-11-03T10:23:49.445Z,12.20
2018-11-03T10:26:19.580Z,19.33
2018-11-03T10:28:48.875Z,11.97
2018-11-03T10:31:18.262Z,11.47
2018-11-03T10:33:47.667Z,12.10
2018-11-03T10:36:17.829Z,12.20
2018-11-03T10:38:46.977Z,13.00
2018-11-03T10:41:17.773Z,11.37
2018-11-03T10:43:46.910Z,11.20
2018-11-03T10:46:17.110Z,15.47
2018-11-03T10:48:46.208Z,11.87
2018-11-03T10:51:16.532Z,11.80
2018-11-03T10:53:46.519Z,10.83
2018-11-03T10:56:15.587Z,11.33
2018-11-03T10:58:45.540Z,11.33
2018-11-03T11:01:20.017Z,10.93
2018-11-03T11:03:54.809Z,10.23
2018-11-03T11:06:29.221Z,11.03
2018-11-03T11:09:03.526Z,10.53
2018-11-03T11:11:38.281Z,9.73
2018-11-03T11:14:09.281Z,9.53
2018-11-03T11:16:38.470Z,9.97
2018-11-03T11:19:07.687Z,11.03
2018-11-03T11:21:36.990Z,9.47
2018-11-03T11:24:06.405Z,9.30
2018-11-03T11:26:35.529Z,11.33
2018-11-03T11:29:05.017Z,9.30
2018-11-03T11:31:34.447Z,11.13
2018-11-03T11:34:03.553Z,11.60
2018-11-03T11:36:32.676Z,9.43
2018-11-03T11:39:01.867Z,9.33
2018-11-03T11:41:30.973Z,10.67
2018-11-03T11:44:00.220Z,10.70
2018-11-03T11:46:30.075Z,11.77
2018-11-03T11:48:59.508Z,9.50
2018-11-03T11:51:28.711Z,9.87
2018-11-03T11:53:57.888Z,9.30
2018-11-03T11:56:27.225Z,11.50
2018-11-03T11:58:56.456Z,10.13
2018-11-03T12:01:25.666Z,10.60
2018-11-03T12:03:54.881Z,10.73
2018-11-03T12:06:24.088Z,10.70
2018-11-03T12:08:53.234Z,10.03
2018-11-03T12:11:22.388Z,11.77
2018-11-03T12:13:52.184Z,10.90
2018-11-03T12:16:21.380Z,13.33
2018-11-03T12:18:50.579Z,13.80
2018-11-03T12:21:19.765Z,11.10
2018-11-03T12:23:49.156Z,13.17
2018-11-03T12:26:18.428Z,10.33
2018-11-03T12:28:47.664Z,9.83
2018-11-03T12:31:16.813Z,13.70
2018-11-03T12:33:45.994Z,11.03
2018-11-03T12:36:15.753Z,11.63
2018-11-03T12:38:45.701Z,11.40
2018-11-03T12:41:14.948Z,10.00
2018-11-03T12:43:44.222Z,9.10
2018-11-03T12:46:13.385Z,9.87
2018-11-03T12:48:42.462Z,10.23
2018-11-03T12:51:11.698Z,9.70
2018-11-03T12:53:40.801Z,11.00
2018-11-03T12:56:09.999Z,10.70
2018-11-03T12:58:39.161Z,10.33
2018-11-03T13:01:08.621Z,10.17
2018-11-03T13:03:37.785Z,9.10
2018-11-03T13:06:07.045Z,9.40
2018-11-03T13:08:36.247Z,11.73
2018-11-03T13:11:05.555Z,12.93
2018-11-03T13:13:34.718Z,11.67
2018-11-03T13:16:04.989Z,10.67
2018-11-03T13:18:34.095Z,10.03
2018-11-03T13:21:03.321Z,11.13
2018-11-03T13:23:32.473Z,9.83
2018-11-03T13:26:01.750Z,11.37
2018-11-03T13:28:31.886Z,10.03
2018-11-03T13:31:01.420Z,9.90
2018-11-03T13:33:30.560Z,10.73
2018-11-03T13:35:59.723Z,11.10
2018-11-03T13:38:28.868Z,9.37
2018-11-03T13:40:58.197Z,10.07
2018-11-03T13:43:27.241Z,10.33
2018-11-03T13:45:56.468Z,11.00
2018-11-03T13:48:25.657Z,10.37
2018-11-03T13:50:54.874Z,11.03
2018-11-03T13:53:24.064Z,13.77
2018-11-03T13:55:53.217Z,12.50
2018-11-03T13:58:22.389Z,10.30
2018-11-03T14:00:51.519Z,11.37
2018-11-03T14:03:20.637Z,10.80
2018-11-03T14:05:50.463Z,10.33
2018-11-03T14:08:19.873Z,13.37
2018-11-03T14:10:49.684Z,11.33
2018-11-03T14:13:18.881Z,11.73
2018-11-03T14:15:48.053Z,13.10
2018-11-03T14:18:17.465Z,10.83
2018-11-03T14:20:47.584Z,11.03
2018-11-03T14:23:17.074Z,11.47
2018-11-03T14:25:46.164Z,11.70
2018-11-03T14:28:17.738Z,11.40
2018-11-03T14:30:46.961Z,15.07
2018-11-03T14:33:16.263Z,11.90
2018-11-03T14:35:45.511Z,13.13
2018-11-03T14:38:14.667Z,12.77
2018-11-03T14:40:43.916Z,11.73
2018-11-03T14:43:13.063Z,11.57
2018-11-03T14:45:42.287Z,15.47
2018-11-03T14:48:12.565Z,12.37
2018-11-03T14:50:42.358Z,11.10
2018-11-03T14:53:12.150Z,13.87
2018-11-03T14:55:41.301Z,15.70
2018-11-03T14:58:10.453Z,12.33
2018-11-03T15:00:40.245Z,13.57
2018-11-03T15:03:09.545Z,11.87
2018-11-03T15:05:38.657Z,15.57
2018-11-03T15:08:07.892Z,14.93
2018-11-03T15:10:37.768Z,12.33
2018-11-03T15:13:07.926Z,22.60
2018-11-03T15:15:37.326Z,13.40
2018-11-03T15:18:07.102Z,11.77
2018-11-03T15:20:36.219Z,13.87
2018-11-03T15:23:06.394Z,16.93
2018-11-03T15:25:35.617Z,15.83
2018-11-03T15:28:04.857Z,15.73
2018-11-03T15:30:34.054Z,14.73
2018-11-03T15:33:03.248Z,12.83
2018-11-03T15:35:32.548Z,13.80
2018-11-03T15:38:01.794Z,13.60
2018-11-03T15:40:31.694Z,13.47
2018-11-03T15:43:01.628Z,13.63
2018-11-03T15:45:30.791Z,17.17
2018-11-03T15:47:59.974Z,14.13
2018-11-03T15:50:29.228Z,14.90
2018-11-03T15:52:58.406Z,17.00
2018-11-03T15:55:27.526Z,14.07
2018-11-03T15:57:56.852Z,15.00
2018-11-03T16:00:26.109Z,15.57
2018-11-03T16:02:55.842Z,15.87
2018-11-03T16:05:25.015Z,15.43
2018-11-03T16:07:54.188Z,15.07
2018-11-03T16:10:24.025Z,15.90
2018-11-03T16:12:53.271Z,15.30
2018-11-03T16:15:22.587Z,15.43
2018-11-03T16:17:51.782Z,13.80
2018-11-03T16:20:20.963Z,14.17
2018-11-03T16:22:50.256Z,14.63
2018-11-03T16:25:19.416Z,15.67
2018-11-03T16:27:48.568Z,19.93
2018-11-03T16:30:18.193Z,13.80
2018-11-03T16:32:47.441Z,14.17
2018-11-03T16:35:17.230Z,14.00
2018-11-03T16:37:46.388Z,14.30
2018-11-03T16:40:16.122Z,14.93
2018-11-03T16:42:45.709Z,13.33
2018-11-03T16:45:16.174Z,14.63
2018-11-03T16:47:45.682Z,13.93
2018-11-03T16:50:15.897Z,19.23
2018-11-03T16:52:45.115Z,13.83
2018-11-03T16:55:14.986Z,15.13
2018-11-03T16:57:44.083Z,15.43
2018-11-03T17:00:14.642Z,14.33
2018-11-03T17:02:43.920Z,14.10
2018-11-03T17:05:14.276Z,14.27
2018-11-03T17:07:43.500Z,15.13
2018-11-03T17:10:14.143Z,17.53
2018-11-03T17:12:44.845Z,15.53
2018-11-03T17:15:14.193Z,14.07
2018-11-03T17:17:43.393Z,14.57
2018-11-03T17:20:12.858Z,14.70
2018-11-03T17:22:42.024Z,14.23
2018-11-03T17:25:12.142Z,15.40
2018-11-03T17:27:41.822Z,13.67
2018-11-03T17:30:14.113Z,15.43
2018-11-03T17:32:44.560Z,15.37
2018-11-03T17:35:14.592Z,13.63
2018-11-03T17:37:43.968Z,15.57
2018-11-03T17:40:13.385Z,19.17
2018-11-03T17:42:43.467Z,13.87
2018-11-03T17:45:13.058Z,18.50
2018-11-03T17:47:42.340Z,15.27
2018-11-03T17:50:12.724Z,14.40
2018-11-03T17:52:41.996Z,19.27
2018-11-03T17:55:11.438Z,15.27
2018-11-03T17:57:40.698Z,16.03
2018-11-03T18:00:13.312Z,15.00
2018-11-03T18:02:43.416Z,15.13
2018-11-03T18:05:12.987Z,16.87
2018-11-03T18:07:42.840Z,17.27
2018-11-03T18:10:13.582Z,15.87
2018-11-03T18:12:44.622Z,16.00
2018-11-03T18:15:14.309Z,15.17
2018-11-03T18:17:44.241Z,14.57
2018-11-03T18:20:13.939Z,17.27
2018-11-03T18:22:43.029Z,16.97
2018-11-03T18:25:12.330Z,17.30
2018-11-03T18:27:41.832Z,19.00
2018-11-03T18:30:13.203Z,20.20
2018-11-03T18:32:43.163Z,18.50
2018-11-03T18:35:12.499Z,16.80
2018-11-03T18:37:41.698Z,25.80
2018-11-03T18:40:10.852Z,21.00
2018-11-03T18:42:40.839Z,16.73
2018-11-03T18:45:10.045Z,17.10
2018-11-03T18:47:39.178Z,19.93
2018-11-03T18:50:10.631Z,18.20
2018-11-03T18:52:40.154Z,18.37
2018-11-03T18:55:10.627Z,19.80
2018-11-03T18:57:40.605Z,20.07
2018-11-03T19:00:10.869Z,21.07
2018-11-03T19:02:40.886Z,18.93
2018-11-03T19:05:10.217Z,25.00
2018-11-03T19:07:39.382Z,21.37
2018-11-03T19:10:09.427Z,24.40
2018-11-03T19:12:39.497Z,24.33
2018-11-03T19:15:10.251Z,21.27
2018-11-03T19:17:39.625Z,19.70
2018-11-03T19:20:11.124Z,21.90
2018-11-03T19:22:40.399Z,22.67
2018-11-03T19:25:11.249Z,27.37
2018-11-03T19:27:40.849Z,23.30
2018-11-03T19:30:11.391Z,23.50
2018-11-03T19:32:42.117Z,23.67
2018-11-03T19:35:11.377Z,22.70
2018-11-03T19:37:40.962Z,21.50
2018-11-03T19:40:11.470Z,21.00
2018-11-03T19:42:41.168Z,23.83
2018-11-03T19:45:10.909Z,24.27
2018-11-03T19:47:40.057Z,25.73
2018-11-03T19:50:09.740Z,22.63
2018-11-03T19:52:39.617Z,21.90
2018-11-03T19:55:08.914Z,22.03
2018-11-03T19:57:38.132Z,24.13
2018-11-03T20:00:10.124Z,22.77
2018-11-03T20:02:39.505Z,31.77
2018-11-03T20:05:09.610Z,26.83
2018-11-03T20:07:38.918Z,23.30
2018-11-03T20:10:08.181Z,26.57
2018-11-03T20:12:37.365Z,26.90
2018-11-03T20:15:07.938Z,28.97
2018-11-03T20:17:37.304Z,35.17
2018-11-03T20:20:08.350Z,27.13
2018-11-03T20:22:37.613Z,24.10
2018-11-03T20:25:08.296Z,21.40
2018-11-03T20:27:37.461Z,30.47
2018-11-03T20:30:09.080Z,34.10
2018-11-03T20:32:38.274Z,39.07
2018-11-03T20:35:08.161Z,33.27
2018-11-03T20:37:37.642Z,24.20
2018-11-03T20:40:07.418Z,28.13
2018-11-03T20:42:36.693Z,24.43
2018-11-03T20:45:06.782Z,21.90
2018-11-03T20:47:36.191Z,23.97
2018-11-03T20:50:06.934Z,22.33
2018-11-03T20:52:36.132Z,20.87
2018-11-03T20:55:06.302Z,23.07
2018-11-03T20:57:35.653Z,23.63
2018-11-03T21:00:07.321Z,26.13
2018-11-03T21:02:36.613Z,25.00
2018-11-03T21:05:06.363Z,20.43
2018-11-03T21:07:35.544Z,27.70
2018-11-03T21:10:05.294Z,20.90
2018-11-03T21:12:34.494Z,21.50
2018-11-03T21:15:03.732Z,24.33
2018-11-03T21:17:33.606Z,26.33
2018-11-03T21:20:02.755Z,24.23
2018-11-03T21:22:31.957Z,25.40
2018-11-03T21:25:01.190Z,26.70
2018-11-03T21:27:30.423Z,24.20
2018-11-03T21:29:59.588Z,24.07
2018-11-03T21:32:28.976Z,25.60
2018-11-03T21:34:58.101Z,23.50
2018-11-03T21:37:27.358Z,25.53
2018-11-03T21:39:56.876Z,25.97
2018-11-03T21:42:26.149Z,26.17
2018-11-03T21:44:55.248Z,24.87
2018-11-03T21:47:24.409Z,23.20
2018-11-03T21:49:53.642Z,25.70
2018-11-03T21:52:22.897Z,24.97
2018-11-03T21:54:52.045Z,26.80
2018-11-03T21:57:21.265Z,29.10
2018-11-03T21:59:50.376Z,26.70
2018-11-03T22:02:19.538Z,24.50
2018-11-03T22:04:48.743Z,28.73
2018-11-03T22:07:18.138Z,32.20
2018-11-03T22:09:47.773Z,27.97
2018-11-03T22:12:17.022Z,28.60
2018-11-03T22:14:46.177Z,28.90
2018-11-03T22:17:15.353Z,29.77
2018-11-03T22:19:44.465Z,28.60
2018-11-03T22:22:13.615Z,27.80
2018-11-03T22:24:42.772Z,28.23
2018-11-03T22:27:13.708Z,25.17
2018-11-03T22:29:42.789Z,25.20
2018-11-03T22:32:12.087Z,27.13
2018-11-03T22:34:41.892Z,29.27
2018-11-03T22:37:11.934Z,25.97
2018-11-03T22:39:41.126Z,29.27
2018-11-03T22:42:10.331Z,24.70
2018-11-03T22:44:40.059Z,29.33
2018-11-03T22:47:09.185Z,26.63
2018-11-03T22:49:38.308Z,28.77
2018-11-03T22:52:08.118Z,27.73
2018-11-03T22:54:38.581Z,25.17
2018-11-03T22:57:08.304Z,27.13
2018-11-03T22:59:38.506Z,23.93
2018-11-03T23:02:08.348Z,31.43
2018-11-03T23:04:38.169Z,28.27
2018-11-03T23:07:08.272Z,30.87
2018-11-03T23:09:37.583Z,29.07
2018-11-03T23:12:06.717Z,25.13
2018-11-03T23:14:36.173Z,25.47
2018-11-03T23:17:06.749Z,32.70
2018-11-03T23:19:36.615Z,27.70
2018-11-03T23:22:06.191Z,26.03
2018-11-03T23:24:35.223Z,33.60
2018-11-03T23:27:04.360Z,28.00
2018-11-03T23:29:33.541Z,25.80
2018-11-03T23:32:02.739Z,25.43
2018-11-03T23:34:33.154Z,28.23
2018-11-03T23:37:02.275Z,27.87
2018-11-03T23:39:31.453Z,28.87
2018-11-03T23:42:00.642Z,26.70
2018-11-03T23:44:29.819Z,28.30
2018-11-03T23:46:59.476Z,26.93
2018-11-03T23:49:28.629Z,27.93
2018-11-03T23:51:57.747Z,26.30
2018-11-03T23:54:27.001Z,25.00
2018-11-03T23:56:56.090Z,24.97
2018-11-03T23:59:25.306Z,25.73
